sensor_id;sensor_type;location;lat;lon;timestamp;P1;durP1;ratioP1;P2;durP2;ratioP2
14060;SDS011;7105;43.616;1.434;2022-08-24T00:01:09;2.90;;;1.88;;
14060;SDS011;7105;43.616;1.434;2022-08-24T00:03:36;2.20;;;1.80;;
14060;SDS011;7105;43.616;1.434;2022-08-24T00:06:03;6.43;;;2.00;;
14060;SDS011;7105;43.616;1.434;2022-08-24T00:08:30;4.10;;;2.05;;
14060;SDS011;7105;43.616;1.434;2022-08-24T00:10:56;2.65;;;1.92;;
14060;SDS011;7105;43.616;1.434;2022-08-24T00:13:23;3.38;;;1.90;;
14060;SDS011;7105;43.616;1.434;2022-08-24T00:15:50;3.70;;;2.28;;
14060;SDS011;7105;43.616;1.434;2022-08-24T00:18:16;2.92;;;2.60;;
14060;SDS011;7105;43.616;1.434;2022-08-24T00:20:43;5.28;;;2.88;;
14060;SDS011;7105;43.616;1.434;2022-08-24T00:23:09;3.97;;;2.20;;
14060;SDS011;7105;43.616;1.434;2022-08-24T00:25:35;3.63;;;2.22;;
14060;SDS011;7105;43.616;1.434;2022-08-24T00:28:01;2.70;;;2.40;;
14060;SDS011;7105;43.616;1.434;2022-08-24T00:30:27;3.10;;;2.40;;
14060;SDS011;7105;43.616;1.434;2022-08-24T00:32:53;2.42;;;1.90;;
14060;SDS011;7105;43.616;1.434;2022-08-24T00:35:19;3.22;;;2.05;;
14060;SDS011;7105;43.616;1.434;2022-08-24T00:37:47;2.53;;;2.30;;
14060;SDS011;7105;43.616;1.434;2022-08-24T00:40:19;2.80;;;2.30;;
14060;SDS011;7105;43.616;1.434;2022-08-24T00:42:48;5.35;;;2.60;;
14060;SDS011;7105;43.616;1.434;2022-08-24T00:45:15;5.30;;;2.88;;
14060;SDS011;7105;43.616;1.434;2022-08-24T00:47:43;3.67;;;2.75;;
14060;SDS011;7105;43.616;1.434;2022-08-24T00:50:29;4.13;;;2.80;;
14060;SDS011;7105;43.616;1.434;2022-08-24T00:53:09;3.35;;;2.53;;
14060;SDS011;7105;43.616;1.434;2022-08-24T00:55:44;3.60;;;2.50;;
14060;SDS011;7105;43.616;1.434;2022-08-24T00:58:17;2.88;;;2.50;;
14060;SDS011;7105;43.616;1.434;2022-08-24T01:00:47;3.28;;;1.98;;
14060;SDS011;7105;43.616;1.434;2022-08-24T01:03:22;3.00;;;2.35;;
14060;SDS011;7105;43.616;1.434;2022-08-24T01:05:50;4.78;;;2.20;;
14060;SDS011;7105;43.616;1.434;2022-08-24T01:08:16;4.55;;;2.13;;
14060;SDS011;7105;43.616;1.434;2022-08-24T01:10:48;3.42;;;2.08;;
14060;SDS011;7105;43.616;1.434;2022-08-24T01:13:17;4.72;;;2.35;;
14060;SDS011;7105;43.616;1.434;2022-08-24T01:15:45;3.53;;;2.30;;
14060;SDS011;7105;43.616;1.434;2022-08-24T01:18:15;2.85;;;2.35;;
14060;SDS011;7105;43.616;1.434;2022-08-24T01:23:38;2.55;;;2.30;;
14060;SDS011;7105;43.616;1.434;2022-08-24T01:29:05;4.65;;;2.40;;
14060;SDS011;7105;43.616;1.434;2022-08-24T01:31:34;5.60;;;2.67;;
14060;SDS011;7105;43.616;1.434;2022-08-24T01:34:00;2.67;;;2.38;;
14060;SDS011;7105;43.616;1.434;2022-08-24T01:38:56;2.38;;;2.08;;
14060;SDS011;7105;43.616;1.434;2022-08-24T01:41:26;2.92;;;2.25;;
14060;SDS011;7105;43.616;1.434;2022-08-24T01:43:52;4.10;;;2.20;;
14060;SDS011;7105;43.616;1.434;2022-08-24T01:46:17;2.72;;;2.40;;
14060;SDS011;7105;43.616;1.434;2022-08-24T01:48:43;3.33;;;2.22;;
14060;SDS011;7105;43.616;1.434;2022-08-24T01:51:09;2.45;;;2.00;;
14060;SDS011;7105;43.616;1.434;2022-08-24T01:53:34;5.22;;;2.03;;
14060;SDS011;7105;43.616;1.434;2022-08-24T01:56:00;2.63;;;1.83;;
14060;SDS011;7105;43.616;1.434;2022-08-24T01:58:26;4.85;;;2.10;;
14060;SDS011;7105;43.616;1.434;2022-08-24T02:00:52;3.88;;;2.13;;
14060;SDS011;7105;43.616;1.434;2022-08-24T02:03:18;4.57;;;2.10;;
14060;SDS011;7105;43.616;1.434;2022-08-24T02:05:44;2.72;;;1.83;;
14060;SDS011;7105;43.616;1.434;2022-08-24T02:08:10;3.53;;;2.00;;
14060;SDS011;7105;43.616;1.434;2022-08-24T02:10:36;3.65;;;2.40;;
14060;SDS011;7105;43.616;1.434;2022-08-24T02:13:02;5.43;;;2.30;;
14060;SDS011;7105;43.616;1.434;2022-08-24T02:15:32;2.60;;;2.10;;
14060;SDS011;7105;43.616;1.434;2022-08-24T02:18:04;3.97;;;2.30;;
14060;SDS011;7105;43.616;1.434;2022-08-24T02:20:35;3.78;;;2.10;;
14060;SDS011;7105;43.616;1.434;2022-08-24T02:23:02;2.95;;;1.92;;
14060;SDS011;7105;43.616;1.434;2022-08-24T02:25:28;2.92;;;2.00;;
14060;SDS011;7105;43.616;1.434;2022-08-24T02:27:55;2.50;;;2.10;;
14060;SDS011;7105;43.616;1.434;2022-08-24T02:30:22;2.92;;;2.00;;
14060;SDS011;7105;43.616;1.434;2022-08-24T02:32:48;3.95;;;2.00;;
14060;SDS011;7105;43.616;1.434;2022-08-24T02:35:13;4.03;;;2.03;;
14060;SDS011;7105;43.616;1.434;2022-08-24T02:37:40;2.95;;;1.90;;
14060;SDS011;7105;43.616;1.434;2022-08-24T02:40:07;5.43;;;1.80;;
14060;SDS011;7105;43.616;1.434;2022-08-24T02:42:34;2.13;;;1.65;;
14060;SDS011;7105;43.616;1.434;2022-08-24T02:45:00;2.85;;;1.58;;
14060;SDS011;7105;43.616;1.434;2022-08-24T02:47:27;1.85;;;1.60;;
14060;SDS011;7105;43.616;1.434;2022-08-24T02:49:53;2.22;;;1.60;;
14060;SDS011;7105;43.616;1.434;2022-08-24T02:52:18;3.80;;;1.48;;
14060;SDS011;7105;43.616;1.434;2022-08-24T02:54:45;3.03;;;1.83;;
14060;SDS011;7105;43.616;1.434;2022-08-24T02:57:10;3.58;;;1.60;;
14060;SDS011;7105;43.616;1.434;2022-08-24T02:59:36;1.85;;;1.60;;
14060;SDS011;7105;43.616;1.434;2022-08-24T03:02:02;4.18;;;1.80;;
14060;SDS011;7105;43.616;1.434;2022-08-24T03:04:28;3.78;;;2.10;;
14060;SDS011;7105;43.616;1.434;2022-08-24T03:06:53;2.45;;;1.63;;
14060;SDS011;7105;43.616;1.434;2022-08-24T03:09:19;2.83;;;1.55;;
14060;SDS011;7105;43.616;1.434;2022-08-24T03:11:45;4.75;;;1.80;;
14060;SDS011;7105;43.616;1.434;2022-08-24T03:14:10;2.22;;;1.60;;
14060;SDS011;7105;43.616;1.434;2022-08-24T03:16:37;2.15;;;1.75;;
14060;SDS011;7105;43.616;1.434;2022-08-24T03:19:02;2.60;;;1.48;;
14060;SDS011;7105;43.616;1.434;2022-08-24T03:21:28;3.42;;;1.55;;
14060;SDS011;7105;43.616;1.434;2022-08-24T03:23:54;2.70;;;1.60;;
14060;SDS011;7105;43.616;1.434;2022-08-24T03:26:20;1.90;;;1.67;;
14060;SDS011;7105;43.616;1.434;2022-08-24T03:28:46;2.70;;;1.58;;
14060;SDS011;7105;43.616;1.434;2022-08-24T03:31:13;5.55;;;1.67;;
14060;SDS011;7105;43.616;1.434;2022-08-24T03:33:39;1.60;;;1.45;;
14060;SDS011;7105;43.616;1.434;2022-08-24T03:36:05;3.42;;;1.40;;
14060;SDS011;7105;43.616;1.434;2022-08-24T03:38:30;2.95;;;1.52;;
14060;SDS011;7105;43.616;1.434;2022-08-24T03:40:56;1.83;;;1.30;;
14060;SDS011;7105;43.616;1.434;2022-08-24T03:43:22;2.08;;;1.25;;
14060;SDS011;7105;43.616;1.434;2022-08-24T03:46:06;3.33;;;1.45;;
14060;SDS011;7105;43.616;1.434;2022-08-24T03:48:33;6.40;;;1.80;;
14060;SDS011;7105;43.616;1.434;2022-08-24T03:50:59;2.15;;;1.42;;
14060;SDS011;7105;43.616;1.434;2022-08-24T03:53:25;1.88;;;1.20;;
14060;SDS011;7105;43.616;1.434;2022-08-24T03:55:51;2.63;;;1.70;;
14060;SDS011;7105;43.616;1.434;2022-08-24T03:58:17;3.22;;;1.23;;
14060;SDS011;7105;43.616;1.434;2022-08-24T04:00:43;3.33;;;1.20;;
14060;SDS011;7105;43.616;1.434;2022-08-24T04:03:09;4.20;;;1.48;;
14060;SDS011;7105;43.616;1.434;2022-08-24T04:05:36;2.42;;;1.52;;
14060;SDS011;7105;43.616;1.434;2022-08-24T04:08:04;3.50;;;1.40;;
14060;SDS011;7105;43.616;1.434;2022-08-24T04:10:30;1.92;;;1.40;;
14060;SDS011;7105;43.616;1.434;2022-08-24T04:12:56;2.38;;;1.40;;
14060;SDS011;7105;43.616;1.434;2022-08-24T04:15:22;2.95;;;1.58;;
14060;SDS011;7105;43.616;1.434;2022-08-24T04:17:49;1.52;;;1.42;;
14060;SDS011;7105;43.616;1.434;2022-08-24T04:20:15;3.00;;;1.85;;
14060;SDS011;7105;43.616;1.434;2022-08-24T04:22:40;2.15;;;1.60;;
14060;SDS011;7105;43.616;1.434;2022-08-24T04:25:06;3.70;;;1.70;;
14060;SDS011;7105;43.616;1.434;2022-08-24T04:27:32;3.47;;;1.50;;
14060;SDS011;7105;43.616;1.434;2022-08-24T04:29:58;5.35;;;1.73;;
14060;SDS011;7105;43.616;1.434;2022-08-24T04:32:24;4.65;;;1.67;;
14060;SDS011;7105;43.616;1.434;2022-08-24T04:34:50;3.17;;;1.70;;
14060;SDS011;7105;43.616;1.434;2022-08-24T04:37:15;3.92;;;1.90;;
14060;SDS011;7105;43.616;1.434;2022-08-24T04:39:41;5.07;;;1.98;;
14060;SDS011;7105;43.616;1.434;2022-08-24T04:42:08;5.07;;;1.88;;
14060;SDS011;7105;43.616;1.434;2022-08-24T04:44:34;4.75;;;2.05;;
14060;SDS011;7105;43.616;1.434;2022-08-24T04:47:00;5.35;;;2.10;;
14060;SDS011;7105;43.616;1.434;2022-08-24T04:49:26;3.33;;;2.40;;
14060;SDS011;7105;43.616;1.434;2022-08-24T04:51:51;11.70;;;2.10;;
14060;SDS011;7105;43.616;1.434;2022-08-24T04:54:17;6.25;;;2.30;;
14060;SDS011;7105;43.616;1.434;2022-08-24T04:56:43;4.60;;;1.90;;
14060;SDS011;7105;43.616;1.434;2022-08-24T04:59:09;4.90;;;1.70;;
14060;SDS011;7105;43.616;1.434;2022-08-24T05:01:34;2.33;;;1.80;;
14060;SDS011;7105;43.616;1.434;2022-08-24T05:04:00;2.50;;;1.60;;
14060;SDS011;7105;43.616;1.434;2022-08-24T05:06:28;6.40;;;2.00;;
14060;SDS011;7105;43.616;1.434;2022-08-24T05:08:56;4.85;;;1.77;;
14060;SDS011;7105;43.616;1.434;2022-08-24T05:11:22;4.32;;;1.63;;
14060;SDS011;7105;43.616;1.434;2022-08-24T05:13:50;3.40;;;1.90;;
14060;SDS011;7105;43.616;1.434;2022-08-24T05:16:17;4.05;;;2.10;;
14060;SDS011;7105;43.616;1.434;2022-08-24T05:18:44;4.30;;;1.90;;
14060;SDS011;7105;43.616;1.434;2022-08-24T05:21:11;4.30;;;2.00;;
14060;SDS011;7105;43.616;1.434;2022-08-24T05:23:39;2.50;;;2.03;;
14060;SDS011;7105;43.616;1.434;2022-08-24T05:26:06;2.70;;;2.20;;
14060;SDS011;7105;43.616;1.434;2022-08-24T05:28:34;5.25;;;2.28;;
14060;SDS011;7105;43.616;1.434;2022-08-24T05:31:07;4.65;;;2.08;;
14060;SDS011;7105;43.616;1.434;2022-08-24T05:33:34;2.88;;;1.70;;
14060;SDS011;7105;43.616;1.434;2022-08-24T05:36:01;4.60;;;3.17;;
14060;SDS011;7105;43.616;1.434;2022-08-24T05:38:27;3.58;;;2.45;;
14060;SDS011;7105;43.616;1.434;2022-08-24T05:40:53;3.38;;;1.98;;
14060;SDS011;7105;43.616;1.434;2022-08-24T05:43:19;2.67;;;1.73;;
14060;SDS011;7105;43.616;1.434;2022-08-24T05:45:45;3.17;;;2.13;;
14060;SDS011;7105;43.616;1.434;2022-08-24T05:48:11;7.78;;;2.25;;
14060;SDS011;7105;43.616;1.434;2022-08-24T05:50:36;3.35;;;2.30;;
14060;SDS011;7105;43.616;1.434;2022-08-24T05:53:02;4.20;;;2.45;;
14060;SDS011;7105;43.616;1.434;2022-08-24T05:55:28;3.72;;;2.20;;
14060;SDS011;7105;43.616;1.434;2022-08-24T05:57:55;11.95;;;2.90;;
14060;SDS011;7105;43.616;1.434;2022-08-24T06:00:20;12.10;;;2.50;;
14060;SDS011;7105;43.616;1.434;2022-08-24T06:02:47;10.85;;;2.35;;
14060;SDS011;7105;43.616;1.434;2022-08-24T06:05:16;6.97;;;2.05;;
14060;SDS011;7105;43.616;1.434;2022-08-24T06:07:42;5.18;;;2.00;;
14060;SDS011;7105;43.616;1.434;2022-08-24T06:10:08;1.75;;;1.65;;
14060;SDS011;7105;43.616;1.434;2022-08-24T06:12:36;7.70;;;2.22;;
14060;SDS011;7105;43.616;1.434;2022-08-24T06:15:02;2.45;;;2.00;;
14060;SDS011;7105;43.616;1.434;2022-08-24T06:17:28;7.00;;;2.53;;
14060;SDS011;7105;43.616;1.434;2022-08-24T06:19:55;4.00;;;2.22;;
14060;SDS011;7105;43.616;1.434;2022-08-24T06:22:20;5.65;;;2.15;;
14060;SDS011;7105;43.616;1.434;2022-08-24T06:24:46;3.78;;;2.38;;
14060;SDS011;7105;43.616;1.434;2022-08-24T06:27:30;5.50;;;2.17;;
14060;SDS011;7105;43.616;1.434;2022-08-24T06:29:57;3.45;;;2.15;;
14060;SDS011;7105;43.616;1.434;2022-08-24T06:32:29;2.83;;;1.73;;
14060;SDS011;7105;43.616;1.434;2022-08-24T06:34:55;3.60;;;1.50;;
14060;SDS011;7105;43.616;1.434;2022-08-24T06:37:21;5.32;;;2.25;;
14060;SDS011;7105;43.616;1.434;2022-08-24T06:39:50;3.63;;;2.00;;
14060;SDS011;7105;43.616;1.434;2022-08-24T06:42:17;2.90;;;1.63;;
14060;SDS011;7105;43.616;1.434;2022-08-24T06:44:42;3.85;;;1.83;;
14060;SDS011;7105;43.616;1.434;2022-08-24T06:47:08;4.32;;;1.85;;
14060;SDS011;7105;43.616;1.434;2022-08-24T06:49:35;5.32;;;1.80;;
14060;SDS011;7105;43.616;1.434;2022-08-24T06:52:02;1.67;;;1.55;;
14060;SDS011;7105;43.616;1.434;2022-08-24T06:54:31;6.03;;;1.95;;
14060;SDS011;7105;43.616;1.434;2022-08-24T06:56:57;3.97;;;1.80;;
14060;SDS011;7105;43.616;1.434;2022-08-24T06:59:26;5.20;;;2.00;;
14060;SDS011;7105;43.616;1.434;2022-08-24T07:02:09;6.25;;;2.00;;
14060;SDS011;7105;43.616;1.434;2022-08-24T07:04:37;5.93;;;1.70;;
14060;SDS011;7105;43.616;1.434;2022-08-24T07:07:04;3.30;;;1.88;;
14060;SDS011;7105;43.616;1.434;2022-08-24T07:09:31;5.20;;;1.80;;
14060;SDS011;7105;43.616;1.434;2022-08-24T07:11:56;9.55;;;2.00;;
14060;SDS011;7105;43.616;1.434;2022-08-24T07:14:22;3.97;;;1.85;;
14060;SDS011;7105;43.616;1.434;2022-08-24T07:16:48;3.80;;;1.75;;
14060;SDS011;7105;43.616;1.434;2022-08-24T07:19:13;3.92;;;1.90;;
14060;SDS011;7105;43.616;1.434;2022-08-24T07:21:39;4.95;;;2.97;;
14060;SDS011;7105;43.616;1.434;2022-08-24T07:24:06;6.10;;;2.30;;
14060;SDS011;7105;43.616;1.434;2022-08-24T07:26:34;3.60;;;2.10;;
14060;SDS011;7105;43.616;1.434;2022-08-24T07:29:02;3.30;;;1.85;;
14060;SDS011;7105;43.616;1.434;2022-08-24T07:31:35;7.05;;;2.22;;
14060;SDS011;7105;43.616;1.434;2022-08-24T07:34:04;4.05;;;2.20;;
14060;SDS011;7105;43.616;1.434;2022-08-24T07:36:31;6.18;;;2.30;;
14060;SDS011;7105;43.616;1.434;2022-08-24T07:38:57;4.38;;;2.00;;
14060;SDS011;7105;43.616;1.434;2022-08-24T07:41:24;4.05;;;2.30;;
14060;SDS011;7105;43.616;1.434;2022-08-24T07:43:51;4.40;;;2.13;;
14060;SDS011;7105;43.616;1.434;2022-08-24T07:46:17;6.72;;;1.88;;
14060;SDS011;7105;43.616;1.434;2022-08-24T07:48:43;4.28;;;1.98;;
14060;SDS011;7105;43.616;1.434;2022-08-24T07:51:12;5.57;;;2.22;;
14060;SDS011;7105;43.616;1.434;2022-08-24T07:53:40;5.57;;;2.00;;
14060;SDS011;7105;43.616;1.434;2022-08-24T07:56:07;6.10;;;2.05;;
14060;SDS011;7105;43.616;1.434;2022-08-24T07:58:33;5.07;;;1.90;;
14060;SDS011;7105;43.616;1.434;2022-08-24T08:00:59;4.05;;;1.98;;
14060;SDS011;7105;43.616;1.434;2022-08-24T08:03:28;3.00;;;2.10;;
14060;SDS011;7105;43.616;1.434;2022-08-24T08:06:02;6.15;;;2.15;;
14060;SDS011;7105;43.616;1.434;2022-08-24T08:08:30;6.60;;;2.38;;
14060;SDS011;7105;43.616;1.434;2022-08-24T08:10:58;3.50;;;1.92;;
14060;SDS011;7105;43.616;1.434;2022-08-24T08:13:25;5.93;;;2.15;;
14060;SDS011;7105;43.616;1.434;2022-08-24T08:15:51;3.85;;;2.05;;
14060;SDS011;7105;43.616;1.434;2022-08-24T08:18:17;6.82;;;2.08;;
14060;SDS011;7105;43.616;1.434;2022-08-24T08:20:43;7.05;;;2.42;;
14060;SDS011;7105;43.616;1.434;2022-08-24T08:23:09;4.60;;;2.53;;
14060;SDS011;7105;43.616;1.434;2022-08-24T08:25:54;5.97;;;2.40;;
14060;SDS011;7105;43.616;1.434;2022-08-24T08:28:26;6.82;;;2.80;;
14060;SDS011;7105;43.616;1.434;2022-08-24T08:30:56;4.70;;;2.30;;
14060;SDS011;7105;43.616;1.434;2022-08-24T08:33:23;5.65;;;2.20;;
14060;SDS011;7105;43.616;1.434;2022-08-24T08:35:49;7.00;;;1.95;;
14060;SDS011;7105;43.616;1.434;2022-08-24T08:38:20;3.03;;;2.00;;
14060;SDS011;7105;43.616;1.434;2022-08-24T08:40:52;3.30;;;2.10;;
14060;SDS011;7105;43.616;1.434;2022-08-24T08:47:10;5.13;;;1.92;;
14060;SDS011;7105;43.616;1.434;2022-08-24T09:06:50;3.40;;;1.30;;
14060;SDS011;7105;43.616;1.434;2022-08-24T09:09:19;2.70;;;1.15;;
14060;SDS011;7105;43.616;1.434;2022-08-24T09:12:44;2.78;;;1.17;;
14060;SDS011;7105;43.616;1.434;2022-08-24T09:15:25;3.05;;;1.20;;
14060;SDS011;7105;43.616;1.434;2022-08-24T09:23:35;2.45;;;1.10;;
14060;SDS011;7105;43.616;1.434;2022-08-24T09:26:25;3.47;;;1.48;;
14060;SDS011;7105;43.616;1.434;2022-08-24T09:29:02;5.75;;;1.27;;
14060;SDS011;7105;43.616;1.434;2022-08-24T09:31:41;5.00;;;1.20;;
14060;SDS011;7105;43.616;1.434;2022-08-24T09:37:20;2.92;;;1.40;;
14060;SDS011;7105;43.616;1.434;2022-08-24T09:54:18;1.58;;;1.17;;
14060;SDS011;7105;43.616;1.434;2022-08-24T09:56:48;2.95;;;1.13;;
14060;SDS011;7105;43.616;1.434;2022-08-24T10:00:08;3.22;;;1.35;;
14060;SDS011;7105;43.616;1.434;2022-08-24T10:08:08;1.52;;;0.90;;
14060;SDS011;7105;43.616;1.434;2022-08-24T10:13:59;1.60;;;1.30;;
14060;SDS011;7105;43.616;1.434;2022-08-24T10:16:37;1.65;;;1.05;;
14060;SDS011;7105;43.616;1.434;2022-08-24T10:19:36;3.55;;;1.27;;
14060;SDS011;7105;43.616;1.434;2022-08-24T10:27:56;4.30;;;1.23;;
14060;SDS011;7105;43.616;1.434;2022-08-24T10:33:25;3.42;;;1.30;;
14060;SDS011;7105;43.616;1.434;2022-08-24T10:38:38;3.83;;;1.25;;
14060;SDS011;7105;43.616;1.434;2022-08-24T10:47:34;2.33;;;1.00;;
14060;SDS011;7105;43.616;1.434;2022-08-24T10:55:50;2.13;;;0.98;;
14060;SDS011;7105;43.616;1.434;2022-08-24T11:01:13;1.52;;;1.00;;
14060;SDS011;7105;43.616;1.434;2022-08-24T11:06:17;1.73;;;1.00;;
14060;SDS011;7105;43.616;1.434;2022-08-24T11:11:29;1.15;;;0.80;;
14060;SDS011;7105;43.616;1.434;2022-08-24T11:16:48;2.60;;;0.90;;
14060;SDS011;7105;43.616;1.434;2022-08-24T11:19:35;1.42;;;0.80;;
14060;SDS011;7105;43.616;1.434;2022-08-24T11:22:04;1.83;;;0.80;;
14060;SDS011;7105;43.616;1.434;2022-08-24T11:24:48;1.10;;;0.90;;
14060;SDS011;7105;43.616;1.434;2022-08-24T11:27:28;1.10;;;0.90;;
14060;SDS011;7105;43.616;1.434;2022-08-24T11:30:00;1.27;;;0.95;;
14060;SDS011;7105;43.616;1.434;2022-08-24T11:35:21;1.42;;;0.68;;
14060;SDS011;7105;43.616;1.434;2022-08-24T11:37:54;1.25;;;0.85;;
14060;SDS011;7105;43.616;1.434;2022-08-24T11:40:24;1.00;;;0.82;;
14060;SDS011;7105;43.616;1.434;2022-08-24T11:48:45;2.55;;;0.95;;
14060;SDS011;7105;43.616;1.434;2022-08-24T12:02:22;1.27;;;1.05;;
14060;SDS011;7105;43.616;1.434;2022-08-24T12:10:55;1.20;;;1.02;;
14060;SDS011;7105;43.616;1.434;2022-08-24T12:21:31;2.05;;;0.90;;
14060;SDS011;7105;43.616;1.434;2022-08-24T12:24:04;1.52;;;0.90;;
14060;SDS011;7105;43.616;1.434;2022-08-24T12:26:41;1.35;;;1.10;;
14060;SDS011;7105;43.616;1.434;2022-08-24T12:37:45;1.48;;;0.90;;
14060;SDS011;7105;43.616;1.434;2022-08-24T12:43:02;2.60;;;1.02;;
14060;SDS011;7105;43.616;1.434;2022-08-24T12:45:30;0.98;;;0.90;;
14060;SDS011;7105;43.616;1.434;2022-08-24T12:58:55;1.25;;;1.00;;
14060;SDS011;7105;43.616;1.434;2022-08-24T13:01:44;1.70;;;1.15;;
14060;SDS011;7105;43.616;1.434;2022-08-24T13:04:36;1.98;;;1.10;;
14060;SDS011;7105;43.616;1.434;2022-08-24T13:07:12;3.83;;;1.10;;
14060;SDS011;7105;43.616;1.434;2022-08-24T13:14:53;2.90;;;1.10;;
14060;SDS011;7105;43.616;1.434;2022-08-24T13:17:39;0.93;;;0.85;;
14060;SDS011;7105;43.616;1.434;2022-08-24T13:33:24;1.67;;;0.90;;
14060;SDS011;7105;43.616;1.434;2022-08-24T13:35:59;2.03;;;0.85;;
14060;SDS011;7105;43.616;1.434;2022-08-24T13:38:48;1.60;;;1.00;;
14060;SDS011;7105;43.616;1.434;2022-08-24T13:44:18;1.02;;;0.93;;
14060;SDS011;7105;43.616;1.434;2022-08-24T13:49:44;2.13;;;1.30;;
14060;SDS011;7105;43.616;1.434;2022-08-24T13:55:31;0.82;;;0.82;;
14060;SDS011;7105;43.616;1.434;2022-08-24T13:58:12;2.35;;;0.90;;
14060;SDS011;7105;43.616;1.434;2022-08-24T14:00:53;2.25;;;1.10;;
14060;SDS011;7105;43.616;1.434;2022-08-24T14:03:52;2.13;;;1.13;;
14060;SDS011;7105;43.616;1.434;2022-08-24T14:12:04;2.45;;;0.90;;
14060;SDS011;7105;43.616;1.434;2022-08-24T14:21:18;2.03;;;0.80;;
14060;SDS011;7105;43.616;1.434;2022-08-24T14:31:40;1.08;;;0.80;;
14060;SDS011;7105;43.616;1.434;2022-08-24T14:40:22;1.23;;;0.90;;
14060;SDS011;7105;43.616;1.434;2022-08-24T14:42:58;1.13;;;0.70;;
14060;SDS011;7105;43.616;1.434;2022-08-24T15:10:43;1.58;;;0.75;;
14060;SDS011;7105;43.616;1.434;2022-08-24T15:16:12;2.28;;;1.02;;
14060;SDS011;7105;43.616;1.434;2022-08-24T15:18:40;2.63;;;0.80;;
14060;SDS011;7105;43.616;1.434;2022-08-24T15:22:01;0.80;;;0.70;;
14060;SDS011;7105;43.616;1.434;2022-08-24T15:29:49;2.17;;;0.70;;
14060;SDS011;7105;43.616;1.434;2022-08-24T15:32:16;0.88;;;0.80;;
14060;SDS011;7105;43.616;1.434;2022-08-24T15:34:47;2.17;;;1.17;;
14060;SDS011;7105;43.616;1.434;2022-08-24T15:37:28;1.00;;;0.90;;
14060;SDS011;7105;43.616;1.434;2022-08-24T15:39:58;2.22;;;0.77;;
14060;SDS011;7105;43.616;1.434;2022-08-24T15:42:26;1.35;;;0.80;;
14060;SDS011;7105;43.616;1.434;2022-08-24T15:44:54;1.25;;;0.82;;
14060;SDS011;7105;43.616;1.434;2022-08-24T15:58:35;1.77;;;0.63;;
14060;SDS011;7105;43.616;1.434;2022-08-24T16:01:39;0.70;;;0.60;;
14060;SDS011;7105;43.616;1.434;2022-08-24T16:04:02;0.60;;;0.60;;
14060;SDS011;7105;43.616;1.434;2022-08-24T16:11:27;2.97;;;0.80;;
14060;SDS011;7105;43.616;1.434;2022-08-24T16:13:57;2.00;;;0.73;;
14060;SDS011;7105;43.616;1.434;2022-08-24T16:16:34;1.63;;;0.85;;
14060;SDS011;7105;43.616;1.434;2022-08-24T16:19:03;1.58;;;0.80;;
14060;SDS011;7105;43.616;1.434;2022-08-24T16:21:36;1.67;;;0.70;;
14060;SDS011;7105;43.616;1.434;2022-08-24T16:29:46;3.10;;;1.95;;
14060;SDS011;7105;43.616;1.434;2022-08-24T16:32:20;1.95;;;0.80;;
14060;SDS011;7105;43.616;1.434;2022-08-24T16:34:53;3.60;;;1.00;;
14060;SDS011;7105;43.616;1.434;2022-08-24T16:37:19;1.83;;;0.82;;
14060;SDS011;7105;43.616;1.434;2022-08-24T16:39:46;0.85;;;0.75;;
14060;SDS011;7105;43.616;1.434;2022-08-24T16:42:30;1.50;;;0.80;;
14060;SDS011;7105;43.616;1.434;2022-08-24T16:44:57;1.92;;;0.73;;
14060;SDS011;7105;43.616;1.434;2022-08-24T16:47:23;1.10;;;0.80;;
14060;SDS011;7105;43.616;1.434;2022-08-24T16:49:50;1.48;;;0.90;;
14060;SDS011;7105;43.616;1.434;2022-08-24T16:52:16;2.50;;;1.00;;
14060;SDS011;7105;43.616;1.434;2022-08-24T16:54:42;3.90;;;1.08;;
14060;SDS011;7105;43.616;1.434;2022-08-24T16:57:16;2.75;;;1.05;;
14060;SDS011;7105;43.616;1.434;2022-08-24T16:59:47;1.52;;;0.90;;
14060;SDS011;7105;43.616;1.434;2022-08-24T17:02:14;1.52;;;1.10;;
14060;SDS011;7105;43.616;1.434;2022-08-24T17:04:42;2.35;;;0.88;;
14060;SDS011;7105;43.616;1.434;2022-08-24T17:07:09;1.83;;;0.75;;
14060;SDS011;7105;43.616;1.434;2022-08-24T17:09:40;1.25;;;0.98;;
14060;SDS011;7105;43.616;1.434;2022-08-24T17:12:08;1.50;;;1.08;;
14060;SDS011;7105;43.616;1.434;2022-08-24T17:14:34;2.40;;;1.08;;
14060;SDS011;7105;43.616;1.434;2022-08-24T17:17:08;1.27;;;0.85;;
14060;SDS011;7105;43.616;1.434;2022-08-24T17:19:37;1.70;;;1.10;;
14060;SDS011;7105;43.616;1.434;2022-08-24T17:22:03;3.33;;;1.08;;
14060;SDS011;7105;43.616;1.434;2022-08-24T17:24:30;3.88;;;1.05;;
14060;SDS011;7105;43.616;1.434;2022-08-24T17:26:56;3.30;;;1.25;;
14060;SDS011;7105;43.616;1.434;2022-08-24T17:29:22;2.08;;;1.00;;
14060;SDS011;7105;43.616;1.434;2022-08-24T17:31:50;4.53;;;1.00;;
14060;SDS011;7105;43.616;1.434;2022-08-24T17:34:20;2.78;;;1.00;;
14060;SDS011;7105;43.616;1.434;2022-08-24T17:36:50;2.63;;;1.00;;
14060;SDS011;7105;43.616;1.434;2022-08-24T17:39:18;2.67;;;1.60;;
14060;SDS011;7105;43.616;1.434;2022-08-24T17:41:52;2.17;;;1.40;;
14060;SDS011;7105;43.616;1.434;2022-08-24T17:44:26;5.97;;;2.50;;
14060;SDS011;7105;43.616;1.434;2022-08-24T17:46:55;5.20;;;1.67;;
14060;SDS011;7105;43.616;1.434;2022-08-24T17:49:23;2.88;;;1.45;;
14060;SDS011;7105;43.616;1.434;2022-08-24T17:51:49;3.03;;;1.30;;
14060;SDS011;7105;43.616;1.434;2022-08-24T17:54:19;1.63;;;1.30;;
14060;SDS011;7105;43.616;1.434;2022-08-24T17:56:45;3.33;;;1.45;;
14060;SDS011;7105;43.616;1.434;2022-08-24T17:59:13;2.92;;;1.40;;
14060;SDS011;7105;43.616;1.434;2022-08-24T18:01:52;3.97;;;1.70;;
14060;SDS011;7105;43.616;1.434;2022-08-24T18:04:21;2.03;;;1.42;;
14060;SDS011;7105;43.616;1.434;2022-08-24T18:06:49;2.28;;;1.50;;
14060;SDS011;7105;43.616;1.434;2022-08-24T18:09:34;1.50;;;1.30;;
14060;SDS011;7105;43.616;1.434;2022-08-24T18:12:04;5.72;;;1.60;;
14060;SDS011;7105;43.616;1.434;2022-08-24T18:14:31;2.00;;;1.30;;
14060;SDS011;7105;43.616;1.434;2022-08-24T18:17:00;4.43;;;1.75;;
14060;SDS011;7105;43.616;1.434;2022-08-24T18:19:27;3.50;;;2.00;;
14060;SDS011;7105;43.616;1.434;2022-08-24T18:21:54;3.20;;;1.70;;
14060;SDS011;7105;43.616;1.434;2022-08-24T18:24:19;4.80;;;1.70;;
14060;SDS011;7105;43.616;1.434;2022-08-24T18:26:45;3.22;;;1.60;;
14060;SDS011;7105;43.616;1.434;2022-08-24T18:29:14;1.85;;;1.60;;
14060;SDS011;7105;43.616;1.434;2022-08-24T18:31:42;4.22;;;1.80;;
14060;SDS011;7105;43.616;1.434;2022-08-24T18:34:09;2.20;;;1.70;;
14060;SDS011;7105;43.616;1.434;2022-08-24T18:36:39;3.22;;;2.08;;
14060;SDS011;7105;43.616;1.434;2022-08-24T18:39:05;3.30;;;2.08;;
14060;SDS011;7105;43.616;1.434;2022-08-24T18:41:32;2.95;;;1.90;;
14060;SDS011;7105;43.616;1.434;2022-08-24T18:44:03;3.20;;;1.77;;
14060;SDS011;7105;43.616;1.434;2022-08-24T18:46:30;3.80;;;2.17;;
14060;SDS011;7105;43.616;1.434;2022-08-24T18:48:59;3.10;;;1.65;;
14060;SDS011;7105;43.616;1.434;2022-08-24T18:51:25;2.88;;;1.70;;
14060;SDS011;7105;43.616;1.434;2022-08-24T18:53:59;3.00;;;1.80;;
14060;SDS011;7105;43.616;1.434;2022-08-24T18:56:26;3.05;;;1.95;;
14060;SDS011;7105;43.616;1.434;2022-08-24T18:58:53;2.85;;;2.10;;
14060;SDS011;7105;43.616;1.434;2022-08-24T19:01:20;3.40;;;1.98;;
14060;SDS011;7105;43.616;1.434;2022-08-24T19:03:46;2.17;;;1.83;;
14060;SDS011;7105;43.616;1.434;2022-08-24T19:06:12;4.28;;;1.90;;
14060;SDS011;7105;43.616;1.434;2022-08-24T19:08:38;3.83;;;1.90;;
14060;SDS011;7105;43.616;1.434;2022-08-24T19:11:04;2.80;;;1.80;;
14060;SDS011;7105;43.616;1.434;2022-08-24T19:13:31;2.40;;;1.95;;
14060;SDS011;7105;43.616;1.434;2022-08-24T19:15:57;4.50;;;1.90;;
14060;SDS011;7105;43.616;1.434;2022-08-24T19:18:23;4.75;;;1.85;;
14060;SDS011;7105;43.616;1.434;2022-08-24T19:20:50;2.67;;;1.88;;
14060;SDS011;7105;43.616;1.434;2022-08-24T19:23:20;3.95;;;1.80;;
14060;SDS011;7105;43.616;1.434;2022-08-24T19:25:51;3.55;;;1.92;;
14060;SDS011;7105;43.616;1.434;2022-08-24T19:28:19;3.85;;;1.73;;
14060;SDS011;7105;43.616;1.434;2022-08-24T19:30:45;5.57;;;2.00;;
14060;SDS011;7105;43.616;1.434;2022-08-24T19:33:14;2.53;;;1.98;;
14060;SDS011;7105;43.616;1.434;2022-08-24T19:35:46;4.18;;;1.95;;